sensor_id;sensor_type;location;lat;lon;timestamp;P1;durP1;ratioP1;P2;durP2;ratioP2
19225;SDS011;9747;48.536;12.522;2022-11-12T00:00:59;3.30;;;3.00;;
19225;SDS011;9747;48.536;12.522;2022-11-12T00:03:45;2.75;;;2.55;;
19225;SDS011;9747;48.536;12.522;2022-11-12T00:06:31;2.55;;;2.35;;
19225;SDS011;9747;48.536;12.522;2022-11-12T00:09:17;2.53;;;2.33;;
19225;SDS011;9747;48.536;12.522;2022-11-12T00:12:04;2.53;;;2.42;;
19225;SDS011;9747;48.536;12.522;2022-11-12T00:14:50;2.53;;;2.38;;
19225;SDS011;9747;48.536;12.522;2022-11-12T00:17:36;2.60;;;2.40;;
19225;SDS011;9747;48.536;12.522;2022-11-12T00:20:23;2.78;;;2.58;;
19225;SDS011;9747;48.536;12.522;2022-11-12T00:23:09;2.53;;;2.42;;
19225;SDS011;9747;48.536;12.522;2022-11-12T00:25:58;2.47;;;2.30;;
19225;SDS011;9747;48.536;12.522;2022-11-12T00:28:46;2.38;;;2.22;;
19225;SDS011;9747;48.536;12.522;2022-11-12T00:31:32;2.40;;;2.20;;
19225;SDS011;9747;48.536;12.522;2022-11-12T00:34:19;2.50;;;2.40;;
19225;SDS011;9747;48.536;12.522;2022-11-12T00:37:05;2.47;;;2.28;;
19225;SDS011;9747;48.536;12.522;2022-11-12T00:39:51;2.40;;;2.28;;
19225;SDS011;9747;48.536;12.522;2022-11-12T00:42:37;2.67;;;2.20;;
19225;SDS011;9747;48.536;12.522;2022-11-12T00:45:25;2.20;;;2.10;;
19225;SDS011;9747;48.536;12.522;2022-11-12T00:48:10;2.17;;;2.08;;
19225;SDS011;9747;48.536;12.522;2022-11-12T00:51:00;2.38;;;2.13;;
19225;SDS011;9747;48.536;12.522;2022-11-12T00:53:48;2.17;;;2.08;;
19225;SDS011;9747;48.536;12.522;2022-11-12T00:56:34;2.00;;;1.90;;
19225;SDS011;9747;48.536;12.522;2022-11-12T00:59:20;2.15;;;2.05;;
19225;SDS011;9747;48.536;12.522;2022-11-12T01:02:07;2.05;;;1.95;;
19225;SDS011;9747;48.536;12.522;2022-11-12T01:04:53;2.22;;;2.13;;
19225;SDS011;9747;48.536;12.522;2022-11-12T01:07:39;2.13;;;2.03;;
19225;SDS011;9747;48.536;12.522;2022-11-12T01:10:25;1.60;;;1.60;;
19225;SDS011;9747;48.536;12.522;2022-11-12T01:13:11;2.10;;;2.00;;
19225;SDS011;9747;48.536;12.522;2022-11-12T01:15:57;2.35;;;2.17;;
19225;SDS011;9747;48.536;12.522;2022-11-12T01:18:44;2.10;;;2.00;;
19225;SDS011;9747;48.536;12.522;2022-11-12T01:21:31;2.20;;;2.00;;
19225;SDS011;9747;48.536;12.522;2022-11-12T01:24:20;2.13;;;2.03;;
19225;SDS011;9747;48.536;12.522;2022-11-12T01:27:06;1.70;;;1.70;;
19225;SDS011;9747;48.536;12.522;2022-11-12T01:29:52;1.90;;;1.80;;
19225;SDS011;9747;48.536;12.522;2022-11-12T01:32:38;2.08;;;1.98;;
19225;SDS011;9747;48.536;12.522;2022-11-12T01:35:25;2.00;;;1.90;;
19225;SDS011;9747;48.536;12.522;2022-11-12T01:38:11;1.83;;;1.73;;
19225;SDS011;9747;48.536;12.522;2022-11-12T01:40:57;2.10;;;2.00;;
19225;SDS011;9747;48.536;12.522;2022-11-12T01:43:43;1.70;;;1.70;;
19225;SDS011;9747;48.536;12.522;2022-11-12T01:46:30;1.80;;;1.70;;
19225;SDS011;9747;48.536;12.522;2022-11-12T01:49:18;2.15;;;2.05;;
19225;SDS011;9747;48.536;12.522;2022-11-12T01:52:12;1.92;;;1.83;;
19225;SDS011;9747;48.536;12.522;2022-11-12T01:55:03;2.20;;;2.10;;
19225;SDS011;9747;48.536;12.522;2022-11-12T01:57:52;1.90;;;1.80;;
19225;SDS011;9747;48.536;12.522;2022-11-12T02:00:40;1.85;;;1.75;;
19225;SDS011;9747;48.536;12.522;2022-11-12T02:03:26;2.00;;;1.90;;
19225;SDS011;9747;48.536;12.522;2022-11-12T02:06:13;1.90;;;1.80;;
19225;SDS011;9747;48.536;12.522;2022-11-12T02:09:01;1.95;;;1.85;;
19225;SDS011;9747;48.536;12.522;2022-11-12T02:11:47;2.20;;;2.00;;
19225;SDS011;9747;48.536;12.522;2022-11-12T02:14:33;2.30;;;2.10;;
19225;SDS011;9747;48.536;12.522;2022-11-12T02:17:18;2.17;;;2.00;;
19225;SDS011;9747;48.536;12.522;2022-11-12T02:20:06;1.80;;;1.70;;
19225;SDS011;9747;48.536;12.522;2022-11-12T02:22:55;2.10;;;2.00;;
19225;SDS011;9747;48.536;12.522;2022-11-12T02:25:41;2.08;;;1.92;;
19225;SDS011;9747;48.536;12.522;2022-11-12T02:28:27;1.65;;;1.63;;
19225;SDS011;9747;48.536;12.522;2022-11-12T02:31:15;2.10;;;2.00;;
19225;SDS011;9747;48.536;12.522;2022-11-12T02:34:01;2.40;;;2.30;;
19225;SDS011;9747;48.536;12.522;2022-11-12T02:36:48;2.13;;;2.03;;
19225;SDS011;9747;48.536;12.522;2022-11-12T02:39:36;2.10;;;2.00;;
19225;SDS011;9747;48.536;12.522;2022-11-12T02:42:22;2.10;;;2.00;;
19225;SDS011;9747;48.536;12.522;2022-11-12T02:45:08;2.10;;;2.00;;
19225;SDS011;9747;48.536;12.522;2022-11-12T02:47:55;2.17;;;2.08;;
19225;SDS011;9747;48.536;12.522;2022-11-12T02:50:41;2.35;;;2.15;;
19225;SDS011;9747;48.536;12.522;2022-11-12T02:53:27;2.03;;;1.92;;
19225;SDS011;9747;48.536;12.522;2022-11-12T02:56:16;2.10;;;2.00;;
19225;SDS011;9747;48.536;12.522;2022-11-12T02:59:03;2.30;;;2.13;;
19225;SDS011;9747;48.536;12.522;2022-11-12T03:01:49;1.80;;;1.80;;
19225;SDS011;9747;48.536;12.522;2022-11-12T03:04:35;2.17;;;2.08;;
19225;SDS011;9747;48.536;12.522;2022-11-12T03:07:21;1.95;;;1.85;;
19225;SDS011;9747;48.536;12.522;2022-11-12T03:10:07;2.10;;;1.90;;
19225;SDS011;9747;48.536;12.522;2022-11-12T03:12:56;2.15;;;2.05;;
19225;SDS011;9747;48.536;12.522;2022-11-12T03:15:44;2.00;;;1.90;;
19225;SDS011;9747;48.536;12.522;2022-11-12T03:18:30;1.92;;;1.85;;
19225;SDS011;9747;48.536;12.522;2022-11-12T03:21:16;1.92;;;1.83;;
19225;SDS011;9747;48.536;12.522;2022-11-12T03:24:02;2.00;;;1.90;;
19225;SDS011;9747;48.536;12.522;2022-11-12T03:26:48;1.98;;;1.88;;
19225;SDS011;9747;48.536;12.522;2022-11-12T03:29:35;1.77;;;1.67;;
19225;SDS011;9747;48.536;12.522;2022-11-12T03:32:21;2.03;;;1.92;;
19225;SDS011;9747;48.536;12.522;2022-11-12T03:35:08;1.80;;;1.77;;
19225;SDS011;9747;48.536;12.522;2022-11-12T03:37:54;1.85;;;1.75;;
19225;SDS011;9747;48.536;12.522;2022-11-12T03:40:41;1.65;;;1.55;;
19225;SDS011;9747;48.536;12.522;2022-11-12T03:43:27;1.92;;;1.88;;
19225;SDS011;9747;48.536;12.522;2022-11-12T03:46:14;1.95;;;1.85;;
19225;SDS011;9747;48.536;12.522;2022-11-12T03:49:00;1.70;;;1.70;;
19225;SDS011;9747;48.536;12.522;2022-11-12T03:51:46;2.00;;;1.90;;
19225;SDS011;9747;48.536;12.522;2022-11-12T03:54:32;1.58;;;1.58;;
19225;SDS011;9747;48.536;12.522;2022-11-12T03:57:18;2.08;;;1.98;;
19225;SDS011;9747;48.536;12.522;2022-11-12T04:00:05;1.90;;;1.80;;
19225;SDS011;9747;48.536;12.522;2022-11-12T04:02:54;2.10;;;2.00;;
19225;SDS011;9747;48.536;12.522;2022-11-12T04:05:40;1.80;;;1.70;;
19225;SDS011;9747;48.536;12.522;2022-11-12T04:08:44;1.63;;;1.63;;
19225;SDS011;9747;48.536;12.522;2022-11-12T04:11:30;1.90;;;1.80;;
19225;SDS011;9747;48.536;12.522;2022-11-12T04:14:17;1.95;;;1.85;;
19225;SDS011;9747;48.536;12.522;2022-11-12T04:17:03;1.80;;;1.70;;
19225;SDS011;9747;48.536;12.522;2022-11-12T04:20:22;1.80;;;1.70;;
19225;SDS011;9747;48.536;12.522;2022-11-12T04:23:26;2.13;;;2.03;;
19225;SDS011;9747;48.536;12.522;2022-11-12T04:26:12;1.70;;;1.70;;
19225;SDS011;9747;48.536;12.522;2022-11-12T04:29:06;1.77;;;1.70;;
19225;SDS011;9747;48.536;12.522;2022-11-12T04:32:11;1.65;;;1.65;;
19225;SDS011;9747;48.536;12.522;2022-11-12T04:34:57;1.80;;;1.70;;
19225;SDS011;9747;48.536;12.522;2022-11-12T04:37:44;2.10;;;2.00;;
19225;SDS011;9747;48.536;12.522;2022-11-12T04:40:31;2.08;;;1.98;;
19225;SDS011;9747;48.536;12.522;2022-11-12T04:43:35;1.75;;;1.73;;
19225;SDS011;9747;48.536;12.522;2022-11-12T04:46:39;1.73;;;1.70;;
19225;SDS011;9747;48.536;12.522;2022-11-12T04:49:25;1.65;;;1.65;;
19225;SDS011;9747;48.536;12.522;2022-11-12T04:52:11;1.50;;;1.50;;
19225;SDS011;9747;48.536;12.522;2022-11-12T04:54:59;1.67;;;1.58;;
19225;SDS011;9747;48.536;12.522;2022-11-12T04:57:45;1.73;;;1.73;;
19225;SDS011;9747;48.536;12.522;2022-11-12T05:00:31;2.10;;;2.00;;
19225;SDS011;9747;48.536;12.522;2022-11-12T05:03:18;1.77;;;1.67;;
19225;SDS011;9747;48.536;12.522;2022-11-12T05:06:04;1.75;;;1.70;;
19225;SDS011;9747;48.536;12.522;2022-11-12T05:09:11;1.92;;;1.83;;
19225;SDS011;9747;48.536;12.522;2022-11-12T05:11:58;2.05;;;1.95;;
19225;SDS011;9747;48.536;12.522;2022-11-12T05:14:45;1.60;;;1.60;;
19225;SDS011;9747;48.536;12.522;2022-11-12T05:17:31;1.70;;;1.70;;
19225;SDS011;9747;48.536;12.522;2022-11-12T05:20:17;2.10;;;2.00;;
19225;SDS011;9747;48.536;12.522;2022-11-12T05:23:02;1.90;;;1.80;;
19225;SDS011;9747;48.536;12.522;2022-11-12T05:25:48;1.80;;;1.80;;
19225;SDS011;9747;48.536;12.522;2022-11-12T05:28:36;2.05;;;1.95;;
19225;SDS011;9747;48.536;12.522;2022-11-12T05:31:22;1.90;;;1.80;;
19225;SDS011;9747;48.536;12.522;2022-11-12T05:34:07;1.70;;;1.70;;
19225;SDS011;9747;48.536;12.522;2022-11-12T05:36:54;1.65;;;1.65;;
19225;SDS011;9747;48.536;12.522;2022-11-12T05:39:40;1.77;;;1.67;;
19225;SDS011;9747;48.536;12.522;2022-11-12T05:42:26;1.70;;;1.70;;
19225;SDS011;9747;48.536;12.522;2022-11-12T05:45:14;2.00;;;1.90;;
19225;SDS011;9747;48.536;12.522;2022-11-12T05:48:00;1.50;;;1.50;;
19225;SDS011;9747;48.536;12.522;2022-11-12T05:50:48;2.00;;;1.90;;
19225;SDS011;9747;48.536;12.522;2022-11-12T05:53:34;1.48;;;1.48;;
19225;SDS011;9747;48.536;12.522;2022-11-12T05:56:20;1.63;;;1.63;;
19225;SDS011;9747;48.536;12.522;2022-11-12T05:59:06;1.60;;;1.60;;
19225;SDS011;9747;48.536;12.522;2022-11-12T06:01:56;2.00;;;1.90;;
19225;SDS011;9747;48.536;12.522;2022-11-12T06:04:42;1.80;;;1.80;;
19225;SDS011;9747;48.536;12.522;2022-11-12T06:07:28;1.63;;;1.63;;
19225;SDS011;9747;48.536;12.522;2022-11-12T06:10:14;1.40;;;1.40;;
19225;SDS011;9747;48.536;12.522;2022-11-12T06:13:01;1.70;;;1.70;;
19225;SDS011;9747;48.536;12.522;2022-11-12T06:15:47;1.50;;;1.50;;
19225;SDS011;9747;48.536;12.522;2022-11-12T06:18:34;1.70;;;1.60;;
19225;SDS011;9747;48.536;12.522;2022-11-12T06:21:21;1.88;;;1.80;;
19225;SDS011;9747;48.536;12.522;2022-11-12T06:24:10;1.80;;;1.70;;
19225;SDS011;9747;48.536;12.522;2022-11-12T06:26:56;1.75;;;1.70;;
19225;SDS011;9747;48.536;12.522;2022-11-12T06:29:42;1.55;;;1.55;;
19225;SDS011;9747;48.536;12.522;2022-11-12T06:32:28;1.55;;;1.55;;
19225;SDS011;9747;48.536;12.522;2022-11-12T06:35:16;1.73;;;1.63;;
19225;SDS011;9747;48.536;12.522;2022-11-12T06:38:03;1.77;;;1.77;;
19225;SDS011;9747;48.536;12.522;2022-11-12T06:40:49;1.95;;;1.40;;
19225;SDS011;9747;48.536;12.522;2022-11-12T06:43:35;1.50;;;1.50;;
19225;SDS011;9747;48.536;12.522;2022-11-12T06:46:22;1.33;;;1.33;;
19225;SDS011;9747;48.536;12.522;2022-11-12T06:49:08;1.10;;;1.10;;
19225;SDS011;9747;48.536;12.522;2022-11-12T06:51:55;1.23;;;1.23;;
19225;SDS011;9747;48.536;12.522;2022-11-12T06:54:41;1.42;;;1.42;;
19225;SDS011;9747;48.536;12.522;2022-11-12T06:57:27;1.27;;;1.27;;
19225;SDS011;9747;48.536;12.522;2022-11-12T07:00:14;1.20;;;1.20;;
19225;SDS011;9747;48.536;12.522;2022-11-12T07:03:04;1.30;;;1.30;;
19225;SDS011;9747;48.536;12.522;2022-11-12T07:05:51;1.23;;;1.23;;
19225;SDS011;9747;48.536;12.522;2022-11-12T07:08:38;1.30;;;1.30;;
19225;SDS011;9747;48.536;12.522;2022-11-12T07:11:24;1.27;;;1.20;;
19225;SDS011;9747;48.536;12.522;2022-11-12T07:14:10;1.20;;;1.20;;
19225;SDS011;9747;48.536;12.522;2022-11-12T07:16:56;1.27;;;1.27;;
19225;SDS011;9747;48.536;12.522;2022-11-12T07:19:42;1.15;;;1.15;;
19225;SDS011;9747;48.536;12.522;2022-11-12T07:22:28;1.20;;;1.20;;
19225;SDS011;9747;48.536;12.522;2022-11-12T07:25:17;1.30;;;1.30;;
19225;SDS011;9747;48.536;12.522;2022-11-12T07:28:03;1.48;;;1.48;;
19225;SDS011;9747;48.536;12.522;2022-11-12T07:30:53;1.30;;;1.30;;
19225;SDS011;9747;48.536;12.522;2022-11-12T07:33:41;1.30;;;1.30;;
19225;SDS011;9747;48.536;12.522;2022-11-12T07:36:27;1.40;;;1.40;;
19225;SDS011;9747;48.536;12.522;2022-11-12T07:39:15;1.13;;;1.13;;
19225;SDS011;9747;48.536;12.522;2022-11-12T07:42:03;1.60;;;1.60;;
19225;SDS011;9747;48.536;12.522;2022-11-12T07:44:48;1.40;;;1.40;;
19225;SDS011;9747;48.536;12.522;2022-11-12T07:47:34;1.80;;;1.70;;
19225;SDS011;9747;48.536;12.522;2022-11-12T07:50:20;1.20;;;1.20;;
19225;SDS011;9747;48.536;12.522;2022-11-12T07:53:06;1.77;;;1.35;;
19225;SDS011;9747;48.536;12.522;2022-11-12T07:55:53;1.60;;;1.50;;
19225;SDS011;9747;48.536;12.522;2022-11-12T07:58:40;1.60;;;1.60;;
19225;SDS011;9747;48.536;12.522;2022-11-12T08:01:27;1.55;;;1.45;;
19225;SDS011;9747;48.536;12.522;2022-11-12T08:04:15;1.52;;;1.52;;
19225;SDS011;9747;48.536;12.522;2022-11-12T08:07:01;1.90;;;1.80;;
19225;SDS011;9747;48.536;12.522;2022-11-12T08:09:47;2.17;;;2.08;;
19225;SDS011;9747;48.536;12.522;2022-11-12T08:12:33;2.10;;;2.00;;
19225;SDS011;9747;48.536;12.522;2022-11-12T08:15:21;2.00;;;1.90;;
19225;SDS011;9747;48.536;12.522;2022-11-12T08:18:07;2.25;;;2.05;;
19225;SDS011;9747;48.536;12.522;2022-11-12T08:20:57;2.17;;;2.08;;
19225;SDS011;9747;48.536;12.522;2022-11-12T08:23:44;2.00;;;1.90;;
19225;SDS011;9747;48.536;12.522;2022-11-12T08:26:31;2.08;;;1.80;;
19225;SDS011;9747;48.536;12.522;2022-11-12T08:29:17;2.17;;;2.08;;
19225;SDS011;9747;48.536;12.522;2022-11-12T08:32:05;1.88;;;1.77;;
19225;SDS011;9747;48.536;12.522;2022-11-12T08:34:51;2.50;;;2.30;;
19225;SDS011;9747;48.536;12.522;2022-11-12T08:37:37;2.15;;;2.05;;
19225;SDS011;9747;48.536;12.522;2022-11-12T08:40:23;3.15;;;2.20;;
19225;SDS011;9747;48.536;12.522;2022-11-12T08:43:10;7.70;;;3.50;;
19225;SDS011;9747;48.536;12.522;2022-11-12T08:45:56;6.15;;;3.42;;
19225;SDS011;9747;48.536;12.522;2022-11-12T08:48:44;9.80;;;3.47;;
19225;SDS011;9747;48.536;12.522;2022-11-12T08:51:30;3.65;;;2.80;;
19225;SDS011;9747;48.536;12.522;2022-11-12T08:54:16;4.88;;;3.40;;
19225;SDS011;9747;48.536;12.522;2022-11-12T08:57:02;4.47;;;2.30;;
19225;SDS011;9747;48.536;12.522;2022-11-12T08:59:48;2.50;;;2.40;;
19225;SDS011;9747;48.536;12.522;2022-11-12T09:02:33;2.42;;;2.22;;
19225;SDS011;9747;48.536;12.522;2022-11-12T09:05:21;3.72;;;3.00;;
19225;SDS011;9747;48.536;12.522;2022-11-12T09:08:07;4.60;;;3.10;;
19225;SDS011;9747;48.536;12.522;2022-11-12T09:10:56;4.10;;;2.90;;
19225;SDS011;9747;48.536;12.522;2022-11-12T09:13:43;4.65;;;2.90;;
19225;SDS011;9747;48.536;12.522;2022-11-12T09:16:28;4.95;;;2.78;;
19225;SDS011;9747;48.536;12.522;2022-11-12T09:19:14;3.47;;;2.60;;
19225;SDS011;9747;48.536;12.522;2022-11-12T09:22:02;4.75;;;2.42;;
19225;SDS011;9747;48.536;12.522;2022-11-12T09:24:49;4.30;;;2.70;;
19225;SDS011;9747;48.536;12.522;2022-11-12T09:27:35;4.40;;;2.65;;
19225;SDS011;9747;48.536;12.522;2022-11-12T09:30:21;3.20;;;2.75;;
19225;SDS011;9747;48.536;12.522;2022-11-12T09:33:08;3.03;;;2.47;;
19225;SDS011;9747;48.536;12.522;2022-11-12T09:35:54;3.33;;;2.50;;
19225;SDS011;9747;48.536;12.522;2022-11-12T09:38:45;4.25;;;2.40;;
19225;SDS011;9747;48.536;12.522;2022-11-12T09:41:31;4.03;;;2.50;;
19225;SDS011;9747;48.536;12.522;2022-11-12T09:44:20;3.70;;;2.55;;
19225;SDS011;9747;48.536;12.522;2022-11-12T09:47:08;5.32;;;3.00;;
19225;SDS011;9747;48.536;12.522;2022-11-12T09:50:01;3.58;;;3.15;;
19225;SDS011;9747;48.536;12.522;2022-11-12T09:53:06;4.93;;;3.95;;
19225;SDS011;9747;48.536;12.522;2022-11-12T09:55:59;3.38;;;2.92;;
19225;SDS011;9747;48.536;12.522;2022-11-12T09:58:49;3.58;;;2.60;;
19225;SDS011;9747;48.536;12.522;2022-11-12T10:01:37;3.47;;;2.97;;
19225;SDS011;9747;48.536;12.522;2022-11-12T10:04:38;4.57;;;2.97;;
19225;SDS011;9747;48.536;12.522;2022-11-12T10:07:41;3.08;;;2.60;;
19225;SDS011;9747;48.536;12.522;2022-11-12T10:10:39;6.20;;;5.22;;
19225;SDS011;9747;48.536;12.522;2022-11-12T10:13:34;6.97;;;4.57;;
19225;SDS011;9747;48.536;12.522;2022-11-12T10:16:42;3.42;;;3.13;;
19225;SDS011;9747;48.536;12.522;2022-11-12T10:19:40;3.40;;;3.10;;
19225;SDS011;9747;48.536;12.522;2022-11-12T10:22:36;5.65;;;3.38;;
19225;SDS011;9747;48.536;12.522;2022-11-12T10:25:42;5.95;;;3.63;;
19225;SDS011;9747;48.536;12.522;2022-11-12T10:28:36;3.60;;;3.30;;
19225;SDS011;9747;48.536;12.522;2022-11-12T10:31:26;5.18;;;3.10;;
19225;SDS011;9747;48.536;12.522;2022-11-12T10:34:15;3.88;;;3.50;;
19225;SDS011;9747;48.536;12.522;2022-11-12T10:37:05;3.65;;;3.35;;
19225;SDS011;9747;48.536;12.522;2022-11-12T10:39:55;3.60;;;3.30;;
19225;SDS011;9747;48.536;12.522;2022-11-12T10:42:54;4.97;;;2.85;;
19225;SDS011;9747;48.536;12.522;2022-11-12T10:45:44;4.35;;;3.45;;
19225;SDS011;9747;48.536;12.522;2022-11-12T10:48:32;5.05;;;3.33;;
19225;SDS011;9747;48.536;12.522;2022-11-12T10:51:19;3.42;;;3.10;;
19225;SDS011;9747;48.536;12.522;2022-11-12T10:54:24;4.47;;;3.10;;
19225;SDS011;9747;48.536;12.522;2022-11-12T10:57:18;4.32;;;3.08;;
19225;SDS011;9747;48.536;12.522;2022-11-12T11:00:06;4.00;;;3.60;;
19225;SDS011;9747;48.536;12.522;2022-11-12T11:03:04;4.07;;;3.47;;
19225;SDS011;9747;48.536;12.522;2022-11-12T11:06:00;4.05;;;3.40;;
19225;SDS011;9747;48.536;12.522;2022-11-12T11:08:49;3.50;;;3.20;;
19225;SDS011;9747;48.536;12.522;2022-11-12T11:11:36;3.63;;;2.88;;
19225;SDS011;9747;48.536;12.522;2022-11-12T11:14:25;10.68;;;3.35;;
19225;SDS011;9747;48.536;12.522;2022-11-12T11:17:14;6.80;;;3.25;;
19225;SDS011;9747;48.536;12.522;2022-11-12T11:20:03;6.22;;;2.83;;
19225;SDS011;9747;48.536;12.522;2022-11-12T11:23:09;3.28;;;2.97;;
19225;SDS011;9747;48.536;12.522;2022-11-12T11:26:04;4.03;;;3.05;;
19225;SDS011;9747;48.536;12.522;2022-11-12T11:29:05;3.03;;;2.72;;
19225;SDS011;9747;48.536;12.522;2022-11-12T11:32:05;3.55;;;3.00;;
19225;SDS011;9747;48.536;12.522;2022-11-12T11:35:10;4.82;;;3.45;;
19225;SDS011;9747;48.536;12.522;2022-11-12T11:38:14;7.97;;;3.20;;
19225;SDS011;9747;48.536;12.522;2022-11-12T11:41:17;7.97;;;3.25;;
19225;SDS011;9747;48.536;12.522;2022-11-12T11:44:18;7.50;;;3.17;;
19225;SDS011;9747;48.536;12.522;2022-11-12T11:47:16;5.82;;;3.08;;
19225;SDS011;9747;48.536;12.522;2022-11-12T11:50:15;5.97;;;3.10;;
19225;SDS011;9747;48.536;12.522;2022-11-12T11:53:13;8.07;;;3.35;;
19225;SDS011;9747;48.536;12.522;2022-11-12T11:56:06;7.60;;;3.17;;
19225;SDS011;9747;48.536;12.522;2022-11-12T11:58:59;5.25;;;3.22;;
19225;SDS011;9747;48.536;12.522;2022-11-12T12:02:03;6.00;;;2.90;;
19225;SDS011;9747;48.536;12.522;2022-11-12T12:05:08;4.85;;;3.05;;
19225;SDS011;9747;48.536;12.522;2022-11-12T12:08:10;6.22;;;3.10;;
19225;SDS011;9747;48.536;12.522;2022-11-12T12:11:00;6.70;;;3.17;;
19225;SDS011;9747;48.536;12.522;2022-11-12T12:13:57;3.83;;;2.67;;
19225;SDS011;9747;48.536;12.522;2022-11-12T12:16:56;3.90;;;2.90;;
19225;SDS011;9747;48.536;12.522;2022-11-12T12:19:51;3.40;;;2.90;;
19225;SDS011;9747;48.536;12.522;2022-11-12T12:22:48;4.78;;;2.92;;
19225;SDS011;9747;48.536;12.522;2022-11-12T12:25:36;3.08;;;2.78;;
19225;SDS011;9747;48.536;12.522;2022-11-12T12:28:26;6.35;;;2.92;;
19225;SDS011;9747;48.536;12.522;2022-11-12T12:31:20;5.65;;;2.90;;
19225;SDS011;9747;48.536;12.522;2022-11-12T12:34:11;3.25;;;2.83;;
19225;SDS011;9747;48.536;12.522;2022-11-12T12:37:06;5.15;;;2.78;;
19225;SDS011;9747;48.536;12.522;2022-11-12T12:40:01;2.95;;;2.63;;
19225;SDS011;9747;48.536;12.522;2022-11-12T12:42:54;3.15;;;2.78;;
19225;SDS011;9747;48.536;12.522;2022-11-12T12:45:44;2.92;;;2.72;;
19225;SDS011;9747;48.536;12.522;2022-11-12T12:48:31;3.10;;;2.80;;
19225;SDS011;9747;48.536;12.522;2022-11-12T12:51:20;3.63;;;2.83;;
19225;SDS011;9747;48.536;12.522;2022-11-12T12:57:45;3.60;;;2.80;;
19225;SDS011;9747;48.536;12.522;2022-11-12T13:00:32;4.60;;;3.80;;
19225;SDS011;9747;48.536;12.522;2022-11-12T13:06:38;4.63;;;4.22;;
19225;SDS011;9747;48.536;12.522;2022-11-12T13:09:34;5.00;;;4.50;;
19225;SDS011;9747;48.536;12.522;2022-11-12T13:12:20;5.05;;;4.55;;
19225;SDS011;9747;48.536;12.522;2022-11-12T13:15:47;5.63;;;4.63;;
19225;SDS011;9747;48.536;12.522;2022-11-12T13:18:55;6.60;;;5.53;;
19225;SDS011;9747;48.536;12.522;2022-11-12T13:21:45;6.20;;;5.05;;
19225;SDS011;9747;48.536;12.522;2022-11-12T13:28:05;5.57;;;4.25;;
19225;SDS011;9747;48.536;12.522;2022-11-12T13:30:57;5.50;;;5.00;;
19225;SDS011;9747;48.536;12.522;2022-11-12T13:33:46;5.78;;;5.13;;
19225;SDS011;9747;48.536;12.522;2022-11-12T13:36:32;5.47;;;4.63;;
19225;SDS011;9747;48.536;12.522;2022-11-12T13:39:19;5.28;;;4.75;;
19225;SDS011;9747;48.536;12.522;2022-11-12T13:42:09;5.43;;;4.93;;
19225;SDS011;9747;48.536;12.522;2022-11-12T13:45:18;6.10;;;5.28;;
19225;SDS011;9747;48.536;12.522;2022-11-12T13:48:07;5.90;;;5.30;;
19225;SDS011;9747;48.536;12.522;2022-11-12T13:50:57;5.72;;;4.93;;
19225;SDS011;9747;48.536;12.522;2022-11-12T13:53:47;6.18;;;5.18;;
19225;SDS011;9747;48.536;12.522;2022-11-12T13:56:34;5.45;;;4.85;;
19225;SDS011;9747;48.536;12.522;2022-11-12T13:59:22;5.38;;;4.88;;
19225;SDS011;9747;48.536;12.522;2022-11-12T14:02:16;7.53;;;5.90;;
19225;SDS011;9747;48.536;12.522;2022-11-12T14:05:11;5.88;;;5.38;;
19225;SDS011;9747;48.536;12.522;2022-11-12T14:08:04;6.78;;;5.40;;
19225;SDS011;9747;48.536;12.522;2022-11-12T14:11:33;5.65;;;4.97;;
19225;SDS011;9747;48.536;12.522;2022-11-12T14:14:36;6.53;;;5.25;;
19225;SDS011;9747;48.536;12.522;2022-11-12T14:17:49;5.57;;;5.05;;
19225;SDS011;9747;48.536;12.522;2022-11-12T14:20:40;5.28;;;4.82;;
19225;SDS011;9747;48.536;12.522;2022-11-12T14:23:27;9.10;;;5.10;;
19225;SDS011;9747;48.536;12.522;2022-11-12T14:26:13;7.47;;;5.20;;
19225;SDS011;9747;48.536;12.522;2022-11-12T14:29:19;5.22;;;4.60;;
19225;SDS011;9747;48.536;12.522;2022-11-12T14:32:07;6.03;;;4.70;;
19225;SDS011;9747;48.536;12.522;2022-11-12T14:34:55;8.15;;;5.25;;
19225;SDS011;9747;48.536;12.522;2022-11-12T14:37:41;5.55;;;5.00;;
19225;SDS011;9747;48.536;12.522;2022-11-12T14:40:34;5.95;;;5.00;;
19225;SDS011;9747;48.536;12.522;2022-11-12T14:43:24;7.57;;;5.13;;
19225;SDS011;9747;48.536;12.522;2022-11-12T14:46:21;6.88;;;5.03;;
19225;SDS011;9747;48.536;12.522;2022-11-12T14:49:20;7.13;;;5.07;;
19225;SDS011;9747;48.536;12.522;2022-11-12T14:52:14;9.77;;;5.10;;
19225;SDS011;9747;48.536;12.522;2022-11-12T14:55:04;9.45;;;5.35;;
19225;SDS011;9747;48.536;12.522;2022-11-12T14:57:55;18.65;;;10.00;;
19225;SDS011;9747;48.536;12.522;2022-11-12T15:00:42;16.30;;;8.80;;
19225;SDS011;9747;48.536;12.522;2022-11-12T15:03:30;9.82;;;7.10;;
19225;SDS011;9747;48.536;12.522;2022-11-12T15:06:19;12.13;;;6.63;;
19225;SDS011;9747;48.536;12.522;2022-11-12T15:09:16;8.50;;;5.55;;
19225;SDS011;9747;48.536;12.522;2022-11-12T15:12:04;10.57;;;5.60;;
19225;SDS011;9747;48.536;12.522;2022-11-12T15:15:02;8.75;;;6.70;;
19225;SDS011;9747;48.536;12.522;2022-11-12T15:17:57;11.20;;;7.32;;
19225;SDS011;9747;48.536;12.522;2022-11-12T15:20:46;9.20;;;6.80;;
19225;SDS011;9747;48.536;12.522;2022-11-12T15:23:52;9.75;;;6.10;;
19225;SDS011;9747;48.536;12.522;2022-11-12T15:26:45;8.68;;;6.18;;
19225;SDS011;9747;48.536;12.522;2022-11-12T15:29:33;6.88;;;5.60;;
19225;SDS011;9747;48.536;12.522;2022-11-12T15:32:30;6.22;;;5.63;;
19225;SDS011;9747;48.536;12.522;2022-11-12T15:38:26;6.72;;;5.40;;
19225;SDS011;9747;48.536;12.522;2022-11-12T15:41:20;6.70;;;5.45;;
19225;SDS011;9747;48.536;12.522;2022-11-12T15:44:10;6.00;;;5.30;;
19225;SDS011;9747;48.536;12.522;2022-11-12T15:46:57;9.73;;;6.38;;
19225;SDS011;9747;48.536;12.522;2022-11-12T15:49:47;9.18;;;7.43;;
19225;SDS011;9747;48.536;12.522;2022-11-12T15:52:34;7.75;;;6.20;;
19225;SDS011;9747;48.536;12.522;2022-11-12T15:55:20;7.97;;;6.35;;
19225;SDS011;9747;48.536;12.522;2022-11-12T15:58:10;11.07;;;6.57;;
19225;SDS011;9747;48.536;12.522;2022-11-12T16:01:01;9.82;;;6.25;;
19225;SDS011;9747;48.536;12.522;2022-11-12T16:03:49;9.25;;;6.43;;
19225;SDS011;9747;48.536;12.522;2022-11-12T16:06:34;7.13;;;5.97;;
19225;SDS011;9747;48.536;12.522;2022-11-12T16:09:20;7.47;;;6.10;;
19225;SDS011;9747;48.536;12.522;2022-11-12T16:12:07;7.15;;;5.63;;
19225;SDS011;9747;48.536;12.522;2022-11-12T16:14:54;8.38;;;5.78;;
19225;SDS011;9747;48.536;12.522;2022-11-12T16:17:44;9.20;;;6.57;;
19225;SDS011;9747;48.536;12.522;2022-11-12T16:20:30;8.10;;;5.78;;
19225;SDS011;9747;48.536;12.522;2022-11-12T16:23:18;8.15;;;6.22;;
19225;SDS011;9747;48.536;12.522;2022-11-12T16:26:05;5.75;;;5.15;;
19225;SDS011;9747;48.536;12.522;2022-11-12T16:28:52;5.70;;;5.00;;
19225;SDS011;9747;48.536;12.522;2022-11-12T16:31:40;5.70;;;5.10;;
19225;SDS011;9747;48.536;12.522;2022-11-12T16:34:28;5.43;;;4.93;;
19225;SDS011;9747;48.536;12.522;2022-11-12T16:37:15;4.93;;;4.47;;
19225;SDS011;9747;48.536;12.522;2022-11-12T16:40:01;6.70;;;4.80;;
19225;SDS011;9747;48.536;12.522;2022-11-12T16:42:47;5.85;;;4.70;;
19225;SDS011;9747;48.536;12.522;2022-11-12T16:45:34;4.55;;;4.15;;
19225;SDS011;9747;48.536;12.522;2022-11-12T16:48:23;8.40;;;4.35;;
19225;SDS011;9747;48.536;12.522;2022-11-12T16:51:13;4.63;;;4.20;;
19225;SDS011;9747;48.536;12.522;2022-11-12T16:54:01;4.63;;;4.10;;
19225;SDS011;9747;48.536;12.522;2022-11-12T16:56:47;5.57;;;3.80;;
19225;SDS011;9747;48.536;12.522;2022-11-12T16:59:34;4.78;;;3.72;;
19225;SDS011;9747;48.536;12.522;2022-11-12T17:02:19;4.53;;;3.67;;
19225;SDS011;9747;48.536;12.522;2022-11-12T17:05:06;4.65;;;4.00;;
19225;SDS011;9747;48.536;12.522;2022-11-12T17:07:57;4.18;;;3.78;;
19225;SDS011;9747;48.536;12.522;2022-11-12T17:10:43;4.97;;;3.85;;
19225;SDS011;9747;48.536;12.522;2022-11-12T17:13:30;4.70;;;3.60;;
19225;SDS011;9747;48.536;12.522;2022-11-12T17:16:16;5.47;;;3.85;;